Time;durP1;ratioP1;P1;durP2;ratioP2;P2;SDS_P1;SDS_P2;PMS_P1;PMS_P2;Temp;Humidity;BMP_temperature;BMP_pressure;BME280_temperature;BME280_humidity;BME280_pressure;Samples;Min_cycle;Max_cycle;Signal;HPM_P1;HPM_P2
2020/12/02 00:01:10;;;;;;;286.60;109.72;;;;;;;-6.61;100.00;98746.47;5113727;28;20039;-71
2020/12/02 00:03:45;;;;;;;307.55;117.93;;;;;;;-6.68;100.00;98746.44;5115158;28;20126;-70
2020/12/02 00:06:12;;;;;;;299.63;112.75;;;;;;;-6.75;100.00;98746.38;5114129;28;20047;-72
2020/12/02 00:08:47;;;;;;;305.17;116.13;;;;;;;-6.84;100.00;98740.38;5114218;28;20051;-70
2020/12/02 00:11:14;;;;;;;320.17;120.07;;;;;;;-6.89;100.00;98739.47;5113680;28;20171;-70
2020/12/02 00:13:45;;;;;;;329.60;124.32;;;;;;;-6.85;100.00;98748.00;5113705;28;20036;-70
2020/12/02 00:16:14;;;;;;;316.60;124.93;;;;;;;-6.90;100.00;98747.13;5113280;28;20052;-70
2020/12/02 00:18:40;;;;;;;314.10;122.60;;;;;;;-6.88;100.00;98756.47;5112929;28;20388;-69
2020/12/02 00:21:07;;;;;;;345.55;132.05;;;;;;;-6.90;100.00;98747.97;5113733;28;20047;-71
2020/12/02 00:23:33;;;;;;;302.80;123.18;;;;;;;-6.96;100.00;98758.09;5113868;28;20487;-70
2020/12/02 00:25:59;;;;;;;326.20;125.72;;;;;;;-6.98;100.00;98754.69;5112490;28;20044;-70
2020/12/02 00:28:25;;;;;;;339.00;127.57;;;;;;;-7.03;100.00;98741.91;5113163;28;20615;-69
2020/12/02 00:30:51;;;;;;;341.10;128.60;;;;;;;-6.99;100.00;98747.03;5113755;28;20036;-69
2020/12/02 00:33:25;;;;;;;323.45;122.72;;;;;;;-7.01;100.00;98752.09;5113250;28;20050;-70
2020/12/02 00:35:52;;;;;;;318.38;122.45;;;;;;;-7.04;100.00;98750.38;5114186;28;20138;-69
2020/12/02 00:38:22;;;;;;;298.52;117.57;;;;;;;-7.13;100.00;98749.44;5112183;28;20062;-69
2020/12/02 00:40:48;;;;;;;290.58;114.13;;;;;;;-7.11;100.00;98752.84;5113715;28;20097;-70
2020/12/02 00:43:19;;;;;;;292.17;116.10;;;;;;;-7.21;100.00;98750.22;5112685;28;20643;-70
2020/12/02 00:45:48;;;;;;;304.95;117.60;;;;;;;-7.21;100.00;98747.66;5111129;28;20051;-70
2020/12/02 00:48:18;;;;;;;309.35;118.90;;;;;;;-7.13;100.00;98752.00;5113126;28;20047;-70
2020/12/02 00:50:43;;;;;;;321.40;122.95;;;;;;;-7.04;100.00;98759.72;5112173;28;20044;-70
2020/12/02 00:53:22;;;;;;;334.83;123.80;;;;;;;-7.04;100.00;98750.38;5112747;28;20395;-69
2020/12/02 00:55:51;;;;;;;286.20;113.25;;;;;;;-7.07;100.00;98764.78;5113769;28;20055;-69
2020/12/02 00:58:45;;;;;;;293.55;118.00;;;;;;;-7.10;100.00;98755.41;5112971;28;20412;-69
2020/12/02 01:01:15;;;;;;;310.48;118.60;;;;;;;-7.12;100.00;98757.09;5113136;28;20046;-70
2020/12/02 01:03:41;;;;;;;325.38;126.65;;;;;;;-7.12;100.00;98758.78;5113077;28;20044;-70
2020/12/02 01:06:10;;;;;;;334.60;128.95;;;;;;;-7.15;100.00;98757.06;5112843;28;20402;-71
2020/12/02 01:08:43;;;;;;;340.85;127.43;;;;;;;-7.11;100.00;98760.50;5113003;28;20044;-69
2020/12/02 01:11:08;;;;;;;;;;;;;;;-7.15;100.00;98751.09;5113078;28;20047;-72
2020/12/02 01:13:34;;;;;;;307.40;116.97;;;;;;;-7.17;100.00;98755.34;5112459;28;19974;-70
2020/12/02 01:16:04;;;;;;;332.33;123.25;;;;;;;-7.18;100.00;98741.75;5113096;28;20101;-69
2020/12/02 01:18:30;;;;;;;349.95;129.10;;;;;;;-7.13;100.00;98740.09;5111906;27;20074;-70
2020/12/02 01:21:28;;;;;;;332.98;127.68;;;;;;;-7.12;100.00;98758.78;5113048;28;20522;-70
2020/12/02 01:23:58;;;;;;;362.92;132.73;;;;;;;-7.13;100.00;98754.53;5042008;28;20056;-70
2020/12/02 01:26:30;;;;;;;350.50;131.45;;;;;;;-7.21;100.00;98747.66;5112151;28;20122;-69
2020/12/02 01:29:00;;;;;;;313.48;119.25;;;;;;;-7.23;100.00;98748.47;5112620;28;20486;-69
2020/12/02 01:31:26;;;;;;;317.75;121.55;;;;;;;-7.27;100.00;98756.94;5115954;28;20051;-68
2020/12/02 01:33:54;;;;;;;308.35;116.28;;;;;;;-7.34;100.00;98750.91;5112639;28;20052;-69
2020/12/02 01:36:27;;;;;;;321.52;122.65;;;;;;;-7.26;100.00;98753.53;5112132;28;20079;-69
2020/12/02 01:38:55;;;;;;;309.38;120.10;;;;;;;-7.20;100.00;98745.97;5112730;28;20134;-68
2020/12/02 01:41:23;;;;;;;306.60;120.50;;;;;;;-7.23;100.00;98739.16;5112747;28;20051;-70
2020/12/02 01:43:51;;;;;;;307.25;119.55;;;;;;;-7.17;100.00;98747.69;5112644;28;20123;-69
2020/12/02 01:46:31;;;;;;;300.17;117.70;;;;;;;-7.13;100.00;98746.91;5112233;28;20048;-70
2020/12/02 01:49:27;;;;;;;278.15;110.47;;;;;;;-7.13;100.00;98749.44;5111801;28;20403;-70
2020/12/02 01:52:03;;;;;;;261.85;104.68;;;;;;;-7.22;100.00;98745.94;5105060;28;20051;-70
2020/12/02 01:54:41;;;;;;;257.48;106.55;;;;;;;-7.23;100.00;98741.72;5111945;28;20674;-69
2020/12/02 01:57:21;;;;;;;282.00;105.85;;;;;;;-7.25;100.00;98750.16;5112281;28;20126;-70
2020/12/02 01:59:50;;;;;;;259.65;101.05;;;;;;;-7.18;100.00;98753.63;5112713;28;20047;-70
2020/12/02 02:02:21;;;;;;;243.13;100.60;;;;;;;-7.19;100.00;98760.41;5108977;28;20143;-70
2020/12/02 02:05:10;;;;;;;243.88;100.07;;;;;;;-7.25;100.00;98751.00;5101016;28;20048;-70
2020/12/02 02:07:38;;;;;;;259.00;97.00;;;;;;;-7.33;100.00;98747.53;5112216;28;20040;-70
2020/12/02 02:10:31;;;;;;;247.32;98.25;;;;;;;-7.36;100.00;98734.78;5111380;28;20471;-70
2020/12/02 02:13:19;;;;;;;269.25;103.50;;;;;;;-7.29;100.00;98749.28;5111928;28;20454;-70
2020/12/02 02:15:45;;;;;;;246.90;100.63;;;;;;;-7.33;100.00;98742.44;5112741;28;20067;-70
2020/12/02 02:18:27;;;;;;;257.70;103.13;;;;;;;-7.36;100.00;98744.97;5112191;28;20078;-71
2020/12/02 02:21:00;;;;;;;262.75;107.93;;;;;;;-7.39;100.00;98730.47;5112224;28;20118;-70
2020/12/02 02:23:26;;;;;;;256.98;105.53;;;;;;;-7.29;100.00;98744.19;5111505;28;20483;-70
2020/12/02 02:26:14;;;;;;;255.70;104.80;;;;;;;-7.43;100.00;98738.94;5111106;28;20036;-70
2020/12/02 02:29:06;;;;;;;258.65;103.15;;;;;;;-7.54;100.00;98734.56;5112209;28;20036;-70
2020/12/02 02:31:39;;;;;;;288.20;113.07;;;;;;;-7.63;100.00;98731.09;5111786;28;20097;-69
2020/12/02 02:34:08;;;;;;;300.65;117.85;;;;;;;-7.57;100.00;98737.91;5111874;28;20526;-69
2020/12/02 02:36:33;;;;;;;279.75;113.53;;;;;;;-7.64;100.00;98725.97;5110485;28;20634;-69
2020/12/02 02:38:59;;;;;;;292.00;120.50;;;;;;;-7.64;100.00;98726.81;5112156;28;20036;-70
2020/12/02 02:41:27;;;;;;;284.88;111.28;;;;;;;-7.66;100.00;98732.72;5111119;28;20040;-71
2020/12/02 02:43:55;;;;;;;318.55;122.95;;;;;;;-7.69;100.00;98728.47;5111590;28;20384;-71
2020/12/02 02:46:21;;;;;;;312.45;124.57;;;;;;;-7.70;100.00;98721.66;5111323;28;20044;-69
2020/12/02 02:48:47;;;;;;;316.38;125.07;;;;;;;-7.72;100.00;98714.84;5112034;28;20482;-70
2020/12/02 02:51:13;;;;;;;318.83;125.95;;;;;;;-7.80;100.00;98709.66;5110786;28;20071;-72
2020/12/02 02:53:39;;;;;;;314.40;121.88;;;;;;;-7.72;100.00;98732.66;5111803;28;20075;-71
2020/12/02 02:56:07;;;;;;;290.88;115.07;;;;;;;-7.78;100.00;98730.91;5111866;28;20133;-69
2020/12/02 02:58:32;;;;;;;300.85;118.00;;;;;;;-7.78;100.00;98730.91;5111396;28;20081;-68
2020/12/02 03:01:01;;;;;;;282.42;110.45;;;;;;;-7.94;100.00;98718.00;5111812;28;20040;-70
2020/12/02 03:03:29;;;;;;;288.55;112.00;;;;;;;-7.87;100.00;98708.75;5111432;28;20039;-70
2020/12/02 03:05:56;;;;;;;285.02;110.53;;;;;;;-7.80;100.00;98724.94;5111825;28;20147;-70
2020/12/02 03:08:22;;;;;;;260.00;108.32;;;;;;;-7.83;100.00;98728.31;5094738;28;20490;-71
2020/12/02 03:10:48;;;;;;;270.83;105.75;;;;;;;-7.84;100.00;98729.13;5115128;28;20235;-69
2020/12/02 03:13:42;;;;;;;297.95;117.90;;;;;;;-7.96;100.00;98734.91;5115633;28;20136;-71
2020/12/02 03:16:27;;;;;;;350.95;134.25;;;;;;;-8.00;98.29;98722.13;5115064;28;20047;-68
2020/12/02 03:18:58;;;;;;;378.48;139.20;;;;;;;-8.16;97.50;98732.09;5116040;28;20398;-71
2020/12/02 03:21:24;;;;;;;368.35;140.82;;;;;;;-8.02;97.21;98737.38;5114874;27;20047;-70
2020/12/02 03:23:51;;;;;;;379.05;141.40;;;;;;;-8.25;95.76;98736.22;5115288;28;20039;-70
2020/12/02 03:26:18;;;;;;;380.33;142.98;;;;;;;-8.37;97.08;98735.22;5114537;28;20035;-72
2020/12/02 03:28:44;;;;;;;374.92;142.07;;;;;;;-8.46;96.61;98732.59;5114906;28;20499;-69
2020/12/02 03:31:14;;;;;;;370.45;138.60;;;;;;;-8.46;96.38;98727.50;5115238;28;20061;-69
2020/12/02 03:33:40;;;;;;;377.40;141.45;;;;;;;-8.58;95.66;98732.41;5114688;28;20403;-70
2020/12/02 03:36:07;;;;;;;377.05;135.32;;;;;;;-8.75;96.82;98735.53;5115055;28;20044;-69
2020/12/02 03:38:33;;;;;;;363.10;133.57;;;;;;;-8.86;97.25;98730.25;5114409;28;20050;-70
2020/12/02 03:40:58;;;;;;;363.73;135.93;;;;;;;-8.89;97.92;98740.38;5113257;28;20437;-70
2020/12/02 03:43:25;;;;;;;363.35;135.85;;;;;;;-8.98;98.45;98735.16;5114591;28;20512;-70
2020/12/02 03:45:51;;;;;;;364.02;133.90;;;;;;;-9.01;99.00;98730.00;5113420;28;20495;-70
2020/12/02 03:48:18;;;;;;;368.58;133.48;;;;;;;-8.96;100.00;98735.16;5114369;28;20202;-72
2020/12/02 03:50:45;;;;;;;354.30;124.82;;;;;;;-9.02;100.00;98736.78;5114662;27;20216;-70
2020/12/02 03:53:15;;;;;;;295.13;106.57;;;;;;;-9.03;100.00;98726.59;5114307;28;20051;-69
2020/12/02 03:55:40;;;;;;;304.45;109.00;;;;;;;-8.88;100.00;98738.69;5114134;28;20047;-69
2020/12/02 03:58:09;;;;;;;263.85;96.78;;;;;;;-8.93;100.00;98735.22;5114865;28;20040;-69
2020/12/02 04:00:35;;;;;;;281.83;101.07;;;;;;;-8.78;100.00;98745.63;5113801;28;20052;-69
2020/12/02 04:03:01;;;;;;;287.08;101.55;;;;;;;-8.76;100.00;98738.03;5114373;28;20093;-70
2020/12/02 04:05:27;;;;;;;252.60;96.07;;;;;;;-8.74;100.00;98742.31;5113834;28;20044;-70
2020/12/02 04:07:53;;;;;;;238.80;88.72;;;;;;;-8.72;100.00;98742.34;5114235;28;20044;-69
2020/12/02 04:10:19;;;;;;;237.15;87.32;;;;;;;-8.70;100.00;98733.06;5112603;28;20090;-72
2020/12/02 04:12:45;;;;;;;233.60;86.13;;;;;;;-8.76;99.89;98722.78;5114340;28;20506;-70
2020/12/02 04:15:13;;;;;;;228.15;82.28;;;;;;;-8.76;100.00;98733.81;5112847;28;20044;-70
2020/12/02 04:17:39;;;;;;;231.90;82.57;;;;;;;-8.79;100.00;98731.22;5113578;28;20040;-68
2020/12/02 04:20:06;;;;;;;226.93;88.80;;;;;;;-8.72;100.00;98749.97;5112464;28;20032;-67
2020/12/02 04:22:32;;;;;;;215.93;81.80;;;;;;;-8.65;100.00;98744.13;5113382;27;20044;-70
2020/12/02 04:24:58;;;;;;;230.88;82.22;;;;;;;-8.71;100.00;98736.41;5113820;28;20422;-69
2020/12/02 04:27:24;;;;;;;223.20;81.35;;;;;;;-8.79;99.49;98743.91;5112064;28;20053;-68
2020/12/02 04:29:50;;;;;;;214.10;81.07;;;;;;;-8.87;99.94;98738.72;5112387;28;20483;-69
2020/12/02 04:32:16;;;;;;;212.38;79.68;;;;;;;-8.85;100.00;98748.91;5113187;28;20046;-69
2020/12/02 04:34:42;;;;;;;225.18;81.45;;;;;;;-8.76;100.00;98755.81;5113104;28;20048;-70
2020/12/02 04:37:07;;;;;;;195.23;70.07;;;;;;;-8.74;100.00;98760.13;5113581;28;20040;-69
2020/12/02 04:39:33;;;;;;;182.60;68.65;;;;;;;-8.70;100.00;98749.16;5112863;28;20082;-69
2020/12/02 04:41:59;;;;;;;178.45;68.70;;;;;;;-8.80;100.00;98734.59;5112525;28;20044;-68
2020/12/02 04:44:26;;;;;;;167.40;62.80;;;;;;;-8.52;100.00;98757.91;5112882;28;20062;-70
2020/12/02 04:46:55;;;;;;;157.45;60.13;;;;;;;-8.56;100.00;98748.53;5111991;28;20051;-68
2020/12/02 04:49:27;;;;;;;167.45;64.63;;;;;;;-8.59;100.00;98745.94;5113151;28;20043;-72
2020/12/02 04:51:58;;;;;;;174.98;67.88;;;;;;;-8.58;100.00;98756.13;5113379;28;20047;-70
2020/12/02 04:54:24;;;;;;;173.90;64.45;;;;;;;-8.30;100.00;98753.97;5112907;28;20043;-70
2020/12/02 04:56:49;;;;;;;172.65;61.92;;;;;;;-8.37;100.00;98765.75;5113936;28;20051;-70
2020/12/02 04:59:15;;;;;;;171.00;62.85;;;;;;;-8.36;100.00;98762.34;5113538;28;20051;-70
2020/12/02 05:01:54;;;;;;;169.55;64.38;;;;;;;-8.21;100.00;98766.81;5112720;28;20046;-69
2020/12/02 05:04:23;;;;;;;160.85;58.88;;;;;;;-8.36;100.00;98772.50;5112576;28;20063;-70
2020/12/02 05:07:12;;;;;;;170.45;61.55;;;;;;;-8.12;100.00;98764.41;5113770;28;20410;-68
2020/12/02 05:10:08;;;;;;;147.20;56.58;;;;;;;-8.23;100.00;98768.50;5114959;28;20486;-68
2020/12/02 05:12:40;;;;;;;162.38;58.25;;;;;;;-8.21;100.00;98773.59;5112549;28;20073;-69
2020/12/02 05:15:14;;;;;;;167.47;59.90;;;;;;;-8.34;100.00;98760.69;5113258;28;20047;-69
2020/12/02 05:17:40;;;;;;;161.05;60.50;;;;;;;-8.23;100.00;98775.25;5107513;28;20294;-71
2020/12/02 05:20:16;;;;;;;172.90;59.65;;;;;;;-8.33;100.00;98756.47;5093545;28;20043;-69
2020/12/02 05:22:44;;;;;;;169.88;61.80;;;;;;;-8.27;100.00;98762.47;5091279;28;20064;-69
2020/12/02 05:25:16;;;;;;;181.50;61.13;;;;;;;-7.93;100.00;98769.72;5092455;28;20416;-69
2020/12/02 05:27:44;;;;;;;182.35;62.53;;;;;;;-7.90;100.00;98787.59;5091832;28;20044;-68
2020/12/02 05:30:16;;;;;;;186.70;63.53;;;;;;;-7.80;100.00;98780.91;5095412;28;20047;-68
2020/12/02 05:33:01;;;;;;;215.82;68.20;;;;;;;-7.57;100.00;98781.22;5111709;28;20182;-67
2020/12/02 05:35:30;;;;;;;203.45;64.60;;;;;;;-7.43;100.00;98773.72;5112079;28;20058;-69
2020/12/02 05:37:57;;;;;;;180.88;62.20;;;;;;;-7.35;100.00;98767.06;5111903;28;20143;-69
2020/12/02 05:40:23;;;;;;;179.70;61.70;;;;;;;-7.09;100.00;98769.88;5112210;28;20051;-70
2020/12/02 05:42:58;;;;;;;194.80;62.58;;;;;;;-7.25;100.00;98770.53;5110614;28;20047;-70
2020/12/02 05:45:46;;;;;;;191.57;63.95;;;;;;;-7.12;100.00;98772.41;5111339;28;20056;-75
2020/12/02 05:48:24;;;;;;;188.50;62.72;;;;;;;-7.03;100.00;98753.78;5110947;28;20123;-72
2020/12/02 05:50:52;;;;;;;184.55;64.13;;;;;;;-6.92;100.00;98770.03;5111512;28;20491;-73
2020/12/02 05:53:26;;;;;;;187.18;66.28;;;;;;;-6.80;100.00;98753.97;5110929;28;20475;-71
2020/12/02 05:55:54;;;;;;;176.35;62.38;;;;;;;-6.64;100.00;98774.50;5112526;28;20486;-71
2020/12/02 05:58:28;;;;;;;194.00;68.72;;;;;;;-6.77;100.00;98768.47;5112809;28;20419;-72
2020/12/02 06:00:54;;;;;;;208.35;71.68;;;;;;;-6.53;100.00;98770.38;5110647;28;20047;-70
2020/12/02 06:03:23;;;;;;;196.73;68.07;;;;;;;-6.45;100.00;98767.88;5112022;28;20040;-69
2020/12/02 06:05:49;;;;;;;188.05;68.35;;;;;;;-6.31;100.00;98766.28;5110793;28;20054;-70
2020/12/02 06:08:41;;;;;;;192.50;68.43;;;;;;;-6.42;100.00;98763.66;5096001;28;20040;-71
2020/12/02 06:11:16;;;;;;;187.25;68.35;;;;;;;-6.39;100.00;98768.78;5093605;28;20542;-70
2020/12/02 06:13:42;;;;;;;194.27;68.30;;;;;;;-6.35;100.00;98774.72;5111372;28;20043;-75
2020/12/02 06:16:12;;;;;;;181.20;67.32;;;;;;;-6.42;100.00;98760.25;5111427;28;20073;-75
2020/12/02 06:18:39;;;;;;;184.73;68.35;;;;;;;-6.36;100.00;98768.78;5110827;28;20043;-73
2020/12/02 06:21:19;;;;;;;174.77;68.82;;;;;;;-6.19;100.00;98768.06;5103549;28;20047;-74
2020/12/02 06:23:56;;;;;;;186.60;68.40;;;;;;;-6.39;100.00;98766.22;5105839;28;20044;-73
2020/12/02 06:26:44;;;;;;;173.70;61.80;;;;;;;-6.44;100.00;98756.81;5110737;28;20050;-73
2020/12/02 06:29:35;;;;;;;181.70;68.82;;;;;;;-6.34;100.00;98773.91;5111481;28;20040;-76
2020/12/02 06:32:13;;;;;;;195.45;68.93;;;;;;;-6.36;100.00;98775.59;5111429;28;20040;-75
2020/12/02 06:34:40;;;;;;;188.68;68.90;;;;;;;-6.30;100.00;98779.03;5111754;28;20055;-75
2020/12/02 06:37:18;;;;;;;188.20;70.05;;;;;;;-6.09;100.00;98779.19;5110473;28;20047;-73
2020/12/02 06:39:54;;;;;;;181.63;68.57;;;;;;;-5.97;99.60;98766.47;5110888;28;20047;-75
2020/12/02 06:42:33;;;;;;;171.65;66.03;;;;;;;-5.89;98.77;98780.09;5112416;28;20093;-76
2020/12/02 06:45:35;;;;;;;196.77;70.32;;;;;;;-6.12;100.00;98777.44;5114284;28;20054;-77
2020/12/02 06:48:13;;;;;;;192.25;70.95;;;;;;;-6.15;100.00;98775.75;5115140;28;20127;-77
2020/12/02 06:50:40;;;;;;;176.65;64.72;;;;;;;-6.07;100.00;98782.56;5095086;28;20055;-78
2020/12/02 06:53:25;;;;;;;187.30;67.65;;;;;;;-6.05;100.00;98774.09;5076640;28;20483;-76
2020/12/02 06:56:03;;;;;;;154.43;59.88;;;;;;;-5.98;99.79;98772.44;5094555;28;20808;-77
2020/12/02 06:58:29;;;;;;;142.25;55.33;;;;;;;-6.06;99.59;98774.94;5109649;28;20102;-78
2020/12/02 07:01:01;;;;;;;156.90;60.53;;;;;;;-6.06;100.00;98780.03;5115082;28;20054;-74
2020/12/02 07:03:44;;;;;;;143.80;55.60;;;;;;;-5.90;98.43;98777.53;5114728;28;20188;-74
2020/12/02 07:06:30;;;;;;;161.60;60.47;;;;;;;-6.09;100.00;98774.91;5115188;28;20546;-75
2020/12/02 07:09:10;;;;;;;162.32;60.15;;;;;;;-6.16;100.00;98761.28;5114903;28;20047;-74
2020/12/02 07:11:40;;;;;;;148.95;56.88;;;;;;;-6.07;100.00;98765.59;5114067;28;20040;-74
2020/12/02 07:14:36;;;;;;;157.15;59.33;;;;;;;-5.98;100.00;98768.19;5109534;28;20040;-76
2020/12/02 07:17:05;;;;;;;152.15;58.17;;;;;;;-6.06;100.00;98762.16;5109115;28;20044;-75
2020/12/02 07:19:35;;;;;;;162.98;61.17;;;;;;;-5.87;100.00;98768.22;5113805;28;20039;-74
2020/12/02 07:22:06;;;;;;;153.90;59.08;;;;;;;-5.83;100.00;98767.38;5112629;28;20047;-72
2020/12/02 07:24:37;;;;;;;144.88;57.80;;;;;;;-5.65;100.00;98770.88;5110686;28;20044;-76
2020/12/02 07:27:04;;;;;;;151.15;56.55;;;;;;;-5.71;99.22;98766.59;5111417;28;20126;-75
2020/12/02 07:29:31;;;;;;;158.85;61.30;;;;;;;-5.63;99.91;98757.25;5112144;28;20063;-75
2020/12/02 07:32:03;;;;;;;150.50;60.63;;;;;;;-5.68;100.00;98761.50;5112951;28;20471;-75
2020/12/02 07:34:30;;;;;;;137.95;52.67;;;;;;;-5.72;99.08;98771.69;5112022;28;20062;-75
2020/12/02 07:37:00;;;;;;;137.13;55.78;;;;;;;-5.53;98.42;98762.38;5113635;28;20127;-75
2020/12/02 07:39:28;;;;;;;147.80;56.60;;;;;;;-5.60;98.91;98759.81;5111038;28;20130;-75
2020/12/02 07:42:20;;;;;;;126.10;51.92;;;;;;;-5.67;99.38;98768.31;5112886;28;20477;-76
2020/12/02 07:45:14;;;;;;;146.10;59.87;;;;;;;-5.59;100.00;98778.56;5096037;28;20086;-75
2020/12/02 07:47:43;;;;;;;143.48;57.65;;;;;;;-5.50;100.00;98770.06;5110589;28;20358;-75
2020/12/02 07:50:32;;;;;;;128.38;56.30;;;;;;;-5.31;98.09;98746.28;5112148;28;20130;-76
2020/12/02 07:53:27;;;;;;;144.45;56.97;;;;;;;-5.52;99.28;98764.94;5107226;28;20847;-77
2020/12/02 07:55:56;;;;;;;140.75;56.00;;;;;;;-5.34;97.85;98758.22;5105136;28;20043;-75
2020/12/02 07:58:27;;;;;;;133.57;56.45;;;;;;;-5.52;99.62;98751.34;5109759;28;20069;-74
2020/12/02 08:00:53;;;;;;;117.85;49.63;;;;;;;-5.37;96.82;98755.66;5108513;28;20138;-75
2020/12/02 08:03:35;;;;;;;118.72;49.22;;;;;;;-5.50;97.67;98762.41;5112752;28;20046;-75
2020/12/02 08:06:14;;;;;;;130.25;53.45;;;;;;;-5.64;99.23;98753.00;5109787;28;20440;-75
2020/12/02 08:08:40;;;;;;;124.55;51.90;;;;;;;-5.36;99.97;98762.44;5112144;28;20483;-74
2020/12/02 08:11:14;;;;;;;125.28;54.97;;;;;;;-5.32;98.58;98770.13;5112493;28;20074;-75
2020/12/02 08:14:17;;;;;;;135.35;56.45;;;;;;;-5.32;99.04;98761.63;5111976;28;20044;-74
2020/12/02 08:16:43;;;;;;;;;;;;;;;-5.25;98.70;98760.78;5112235;28;20054;-76
2020/12/02 08:19:11;;;;;;;122.72;51.97;;;;;;;-5.02;97.33;98758.25;5111345;28;19920;-74
2020/12/02 08:21:48;;;;;;;142.75;56.22;;;;;;;-5.19;99.01;98750.56;5104407;28;20067;-77
2020/12/02 08:24:19;;;;;;;134.02;57.80;;;;;;;-5.03;98.20;98764.25;5111082;28;20125;-75
2020/12/02 08:26:47;;;;;;;127.85;54.83;;;;;;;-5.06;97.48;98749.75;5111437;28;20050;-76
2020/12/02 08:29:19;;;;;;;128.63;55.88;;;;;;;-5.11;97.70;98750.56;5110170;28;20097;-76
2020/12/02 08:31:46;;;;;;;124.72;57.00;;;;;;;-5.03;97.01;98752.31;5111956;28;20040;-76
2020/12/02 08:34:21;;;;;;;128.57;56.40;;;;;;;-5.05;97.07;98754.03;5113649;28;20047;-76
2020/12/02 08:37:21;;;;;;;132.00;55.78;;;;;;;-5.00;97.37;98748.91;5111614;28;20047;-77
2020/12/02 08:39:50;;;;;;;128.43;55.22;;;;;;;-5.01;96.54;98751.47;5109485;28;20067;-76
2020/12/02 08:42:35;;;;;;;127.90;56.35;;;;;;;-5.03;96.06;98747.19;5112630;28;20051;-76
2020/12/02 08:45:18;;;;;;;126.63;54.70;;;;;;;-5.00;94.86;98743.81;5112273;28;20051;-76
2020/12/02 08:47:51;;;;;;;117.90;51.22;;;;;;;-5.08;96.35;98751.47;5111309;28;20039;-76
2020/12/02 08:50:24;;;;;;;125.75;51.55;;;;;;;-5.15;96.40;98759.94;5111634;28;20051;-77
2020/12/02 08:52:52;;;;;;;119.07;52.97;;;;;;;-5.28;96.15;98750.56;5107726;28;20443;-75
2020/12/02 08:55:18;;;;;;;131.45;53.22;;;;;;;-5.31;96.61;98753.97;5113262;28;20047;-76
2020/12/02 08:57:44;;;;;;;126.85;51.13;;;;;;;-5.39;97.97;98758.22;5110305;28;20119;-74
2020/12/02 09:00:14;;;;;;;117.15;51.85;;;;;;;-5.12;96.79;98752.28;5111589;28;20105;-75
2020/12/02 09:02:40;;;;;;;124.30;52.67;;;;;;;-4.95;95.40;98746.38;5100027;28;20142;-76
2020/12/02 09:05:06;;;;;;;114.63;50.20;;;;;;;-5.08;96.31;98742.91;5094179;28;20118;-75
2020/12/02 09:07:32;;;;;;;106.57;46.67;;;;;;;-5.03;94.97;98731.84;5109110;28;20042;-75
2020/12/02 09:09:57;;;;;;;114.90;47.78;;;;;;;-5.10;95.77;98737.78;5112706;28;20167;-74
2020/12/02 09:12:24;;;;;;;107.55;46.90;;;;;;;-5.36;97.07;98727.56;5105381;28;20047;-74
2020/12/02 09:14:50;;;;;;;102.85;45.17;;;;;;;-5.26;96.85;98720.75;5098745;28;20040;-75
2020/12/02 09:17:16;;;;;;;106.75;44.17;;;;;;;-5.34;96.98;98728.41;5112354;28;20047;-76
2020/12/02 09:19:43;;;;;;;115.57;49.25;;;;;;;-5.10;97.12;98732.69;5110014;28;20035;-74
2020/12/02 09:22:09;;;;;;;115.82;50.08;;;;;;;-5.14;97.83;98730.13;5109273;28;20451;-74
2020/12/02 09:24:35;;;;;;;101.65;43.75;;;;;;;-5.13;97.25;98730.13;5109935;28;20048;-75
2020/12/02 09:27:00;;;;;;;100.88;45.60;;;;;;;-5.11;97.54;98728.44;5109457;28;20448;-74
2020/12/02 09:29:26;;;;;;;92.47;44.50;;;;;;;-5.16;97.45;98719.06;5109647;28;20057;-74
2020/12/02 09:31:52;;;;;;;87.47;41.05;;;;;;;-5.06;96.15;98731.84;5107299;28;20047;-75
2020/12/02 09:34:18;;;;;;;105.30;46.67;;;;;;;-5.23;98.29;98718.19;5094256;28;20398;-76
2020/12/02 09:36:46;;;;;;;98.30;44.13;;;;;;;-5.03;98.22;98724.19;5109371;28;20081;-75
2020/12/02 09:39:13;;;;;;;90.05;41.70;;;;;;;-4.74;97.74;98722.50;5109928;28;20044;-76
2020/12/02 09:42:08;;;;;;;94.07;43.15;;;;;;;-4.72;95.53;98708.84;5089697;28;20040;-76
2020/12/02 09:44:45;;;;;;;89.55;43.10;;;;;;;-4.78;94.89;98703.75;5107701;28;20051;-75
2020/12/02 09:47:15;;;;;;;90.25;43.60;;;;;;;-4.67;96.13;98709.69;5112895;28;20540;-75
2020/12/02 09:49:44;;;;;;;93.95;45.15;;;;;;;-4.78;96.62;98700.34;5119032;28;20385;-75
2020/12/02 09:52:10;;;;;;;91.32;41.78;;;;;;;-4.68;95.20;98713.13;5106864;28;20585;-75
2020/12/02 09:54:47;;;;;;;92.43;41.67;;;;;;;-4.38;93.11;98706.25;5111363;28;20058;-74
2020/12/02 09:57:23;;;;;;;76.95;37.35;;;;;;;-4.74;93.01;98700.34;5110522;28;20050;-74
2020/12/02 09:59:54;;;;;;;81.53;41.15;;;;;;;-4.33;92.41;98698.59;5108946;28;20138;-74
2020/12/02 10:02:23;;;;;;;81.57;39.08;;;;;;;-4.58;93.16;98695.22;5111902;28;20039;-74
2020/12/02 10:05:10;;;;;;;84.10;41.13;;;;;;;-4.61;93.31;98695.22;5111232;28;20043;-75
2020/12/02 10:07:45;;;;;;;85.78;40.95;;;;;;;-4.64;93.98;98679.88;5111309;28;20043;-73
2020/12/02 10:10:33;;;;;;;89.90;41.75;;;;;;;-4.41;93.75;98692.63;5111218;28;20463;-74
2020/12/02 10:13:03;;;;;;;97.65;44.58;;;;;;;-4.60;94.99;98679.00;5110170;28;20039;-72
2020/12/02 10:15:41;;;;;;;87.22;43.55;;;;;;;-4.43;94.27;98692.63;5112412;28;20051;-73
2020/12/02 10:18:38;;;;;;;94.93;43.40;;;;;;;-4.56;95.99;98694.34;5114114;28;20044;-74
2020/12/02 10:21:27;;;;;;;86.03;42.05;;;;;;;-4.69;95.78;98678.16;5115131;28;20051;-73
2020/12/02 10:24:06;;;;;;;97.72;43.63;;;;;;;-4.51;96.09;98678.97;5099922;28;20411;-73
2020/12/02 10:26:34;;;;;;;110.53;48.20;;;;;;;-4.50;97.59;98678.13;5097856;28;20035;-74
2020/12/02 10:29:52;;;;;;;106.13;46.70;;;;;;;-4.53;97.72;98676.44;5115896;28;20101;-74
2020/12/02 10:32:20;;;;;;;94.78;44.97;;;;;;;-4.54;97.64;98681.53;5079518;28;20047;-73
2020/12/02 10:34:47;;;;;;;99.57;46.25;;;;;;;-4.54;96.81;98673.88;5108364;28;20040;-73
2020/12/02 10:37:25;;;;;;;93.50;44.55;;;;;;;-4.32;95.31;98672.13;5096138;28;20441;-72
2020/12/02 10:39:52;;;;;;;96.13;44.83;;;;;;;-4.45;95.78;98658.50;5102434;28;20065;-77
2020/12/02 10:42:26;;;;;;;90.88;44.88;;;;;;;-4.30;94.93;98667.84;5111289;28;20043;-76
2020/12/02 10:45:04;;;;;;;92.05;43.00;;;;;;;-4.38;93.65;98662.75;5115691;28;20058;-75
2020/12/02 10:47:48;;;;;;;90.38;43.95;;;;;;;-4.56;94.29;98663.63;5113678;28;20067;-75
2020/12/02 10:50:16;;;;;;;92.07;44.25;;;;;;;-4.39;93.92;98647.41;5115178;28;20043;-72
2020/12/02 10:52:46;;;;;;;92.03;44.15;;;;;;;-4.49;94.48;98651.69;5109677;28;20039;-75
2020/12/02 10:55:15;;;;;;;106.63;49.30;;;;;;;-4.37;95.57;98650.81;5113872;28;20440;-75
2020/12/02 10:57:41;;;;;;;100.75;47.90;;;;;;;-4.37;94.58;98661.03;5115727;28;20070;-74
2020/12/02 11:00:11;;;;;;;96.10;47.03;;;;;;;-4.36;94.99;98643.13;5114461;28;20070;-74
2020/12/02 11:02:36;;;;;;;85.97;40.13;;;;;;;-4.52;93.51;98641.47;5112615;28;20044;-74
2020/12/02 11:05:05;;;;;;;94.53;45.88;;;;;;;-4.37;94.90;98661.03;5114007;28;20197;-75
2020/12/02 11:07:33;;;;;;;89.28;42.42;;;;;;;-4.52;93.93;98664.50;5114356;28;20067;-74
2020/12/02 11:10:08;;;;;;;97.85;46.88;;;;;;;-4.19;93.92;98655.88;5113968;28;20043;-73
2020/12/02 11:12:58;;;;;;;90.25;46.08;;;;;;;-4.09;93.59;98654.16;5114442;28;20040;-71
2020/12/02 11:15:43;;;;;;;83.22;42.45;;;;;;;-4.26;92.62;98643.09;5113692;28;20122;-75
2020/12/02 11:18:22;;;;;;;83.13;40.55;;;;;;;-4.15;93.09;98643.94;5114443;28;20052;-74
2020/12/02 11:21:27;;;;;;;92.30;44.53;;;;;;;-4.11;93.25;98644.75;5114094;28;20051;-74
2020/12/02 11:24:12;;;;;;;87.25;41.05;;;;;;;-4.08;92.85;98627.66;5094160;28;20076;-75
2020/12/02 11:26:40;;;;;;;83.97;42.40;;;;;;;-4.05;91.05;98612.28;5117281;28;20043;-73
2020/12/02 11:29:10;;;;;;;84.30;41.67;;;;;;;-3.94;89.84;98619.91;5112869;28;20043;-73